createdAt,value
2019-05-02T00:00:32.359Z,6.325684
2019-05-02T00:01:41.900Z,6.27533
2019-05-02T00:02:51.426Z,6.295471
2019-05-02T00:04:00.924Z,6.325684
2019-05-02T00:05:11.422Z,6.345825
2019-05-02T00:06:20.954Z,6.40625
2019-05-02T00:07:30.473Z,6.436462
2019-05-02T00:08:40.002Z,6.456604
2019-05-02T00:09:50.371Z,6.506958
2019-05-02T00:10:59.047Z,6.506958
2019-05-02T00:12:08.592Z,6.517029
2019-05-02T00:13:18.111Z,6.517029
2019-05-02T00:14:27.650Z,6.517029
2019-05-02T00:15:38.079Z,6.53717
2019-05-02T00:16:49.239Z,6.557312
2019-05-02T00:17:56.751Z,6.557312
2019-05-02T00:19:09.025Z,6.53717
2019-05-02T00:20:16.179Z,6.486816
2019-05-02T00:21:26.667Z,6.456604
2019-05-02T00:22:37.152Z,6.436462
2019-05-02T00:23:47.693Z,6.386108
2019-05-02T00:24:58.204Z,6.355896
2019-05-02T00:26:07.732Z,6.325684
2019-05-02T00:27:17.263Z,6.305542
2019-05-02T00:28:26.782Z,6.27533
2019-05-02T00:29:36.310Z,6.235046
2019-05-02T00:30:45.826Z,6.204834
2019-05-02T00:31:55.357Z,6.144409
2019-05-02T00:33:04.899Z,6.094055
2019-05-02T00:34:14.414Z,6.043701
2019-05-02T00:35:23.959Z,6.013489
2019-05-02T00:36:33.493Z,5.983276
2019-05-02T00:37:43.010Z,5.973206
2019-05-02T00:38:52.535Z,5.912781
2019-05-02T00:40:02.067Z,5.932922
2019-05-02T00:41:11.618Z,5.983276
2019-05-02T00:42:22.368Z,5.993347
2019-05-02T00:43:34.289Z,6.013489
2019-05-02T00:44:42.010Z,6.043701
2019-05-02T00:45:49.687Z,6.013489
2019-05-02T00:47:00.160Z,6.013489
2019-05-02T00:48:10.652Z,6.013489
2019-05-02T00:49:20.186Z,5.993347
2019-05-02T00:50:30.709Z,6.02356
2019-05-02T00:51:41.239Z,6.02356
2019-05-02T00:52:50.762Z,5.993347
2019-05-02T00:54:00.317Z,5.993347
2019-05-02T00:55:09.837Z,5.993347
2019-05-02T00:56:19.359Z,5.973206
2019-05-02T00:57:28.875Z,5.942993
2019-05-02T00:58:38.396Z,5.90271
2019-05-02T00:59:47.955Z,5.862427
2019-05-02T01:00:57.483Z,5.832214
2019-05-02T01:02:07.207Z,5.761719
2019-05-02T01:03:17.927Z,5.731506
2019-05-02T01:04:27.416Z,5.681152
2019-05-02T01:05:38.367Z,5.610657
2019-05-02T01:06:49.178Z,5.53009
2019-05-02T01:07:55.874Z,5.540161
2019-05-02T01:09:05.759Z,5.53009
2019-05-02T01:10:17.190Z,5.499878
2019-05-02T01:11:23.062Z,5.439453
2019-05-02T01:12:32.648Z,5.389099
2019-05-02T01:13:43.158Z,5.358887
2019-05-02T01:14:53.684Z,5.348816
2019-05-02T01:16:04.191Z,5.328674
2019-05-02T01:17:14.709Z,5.318604
2019-05-02T01:18:25.216Z,5.288391
2019-05-02T01:19:35.737Z,5.258179
2019-05-02T01:20:46.245Z,5.248108
2019-05-02T01:21:56.786Z,5.197754
2019-05-02T01:23:06.297Z,5.1474
2019-05-02T01:24:15.823Z,5.097046
2019-05-02T01:25:25.331Z,5.046692
2019-05-02T01:26:34.845Z,4.996338
2019-05-02T01:27:44.375Z,4.986267
2019-05-02T01:28:54.448Z,4.986267
2019-05-02T01:30:05.856Z,4.986267
2019-05-02T01:31:17.847Z,4.986267
2019-05-02T01:32:25.122Z,4.966125
2019-05-02T01:33:31.942Z,4.966125
2019-05-02T01:34:42.439Z,4.986267
2019-05-02T01:35:53.258Z,4.966125
2019-05-02T01:37:03.747Z,4.915771
2019-05-02T01:38:14.251Z,4.915771
2019-05-02T01:39:24.814Z,4.925842
2019-05-02T01:40:34.338Z,4.915771
2019-05-02T01:41:43.869Z,4.885559
2019-05-02T01:42:53.375Z,4.915771
2019-05-02T01:44:02.897Z,4.925842
2019-05-02T01:45:12.582Z,4.915771
2019-05-02T01:46:23.989Z,4.915771
2019-05-02T01:47:34.046Z,4.885559
2019-05-02T01:48:45.525Z,4.815063
2019-05-02T01:49:51.879Z,4.784851
2019-05-02T01:51:04.245Z,4.754639
2019-05-02T01:52:10.533Z,4.714355
2019-05-02T01:53:21.017Z,4.714355
2019-05-02T01:54:31.546Z,4.714355
2019-05-02T01:55:42.042Z,4.784851
2019-05-02T01:56:52.537Z,4.855347
2019-05-02T01:58:03.044Z,4.885559
2019-05-02T01:59:13.552Z,4.925842
2019-05-02T02:00:23.071Z,4.986267
2019-05-02T02:01:32.602Z,5.046692
2019-05-02T02:02:42.132Z,5.107117
2019-05-02T02:03:51.658Z,5.117188
2019-05-02T02:05:01.178Z,5.197754
2019-05-02T02:06:10.702Z,5.207825
2019-05-02T02:07:21.189Z,5.258179
2019-05-02T02:08:32.397Z,5.27832
2019-05-02T02:09:43.790Z,5.288391
2019-05-02T02:10:50.394Z,5.318604
2019-05-02T02:11:59.237Z,5.358887
2019-05-02T02:13:09.723Z,5.389099
2019-05-02T02:14:19.241Z,5.389099
2019-05-02T02:15:30.157Z,5.389099
2019-05-02T02:16:39.203Z,5.389099
2019-05-02T02:17:51.395Z,5.389099
2019-05-02T02:18:58.913Z,5.379028
2019-05-02T02:20:09.669Z,5.389099
2019-05-02T02:21:19.957Z,5.389099
2019-05-02T02:22:26.829Z,5.429382
2019-05-02T02:23:37.338Z,5.439453
2019-05-02T02:24:47.845Z,5.469666
2019-05-02T02:25:58.337Z,5.479736
2019-05-02T02:27:08.880Z,5.499878
2019-05-02T02:28:19.390Z,5.540161
2019-05-02T02:29:29.895Z,5.540161
2019-05-02T02:30:40.422Z,5.509949
2019-05-02T02:31:49.930Z,5.509949
2019-05-02T02:33:00.351Z,5.499878
2019-05-02T02:34:09.929Z,5.479736
2019-05-02T02:35:20.449Z,5.499878
2019-05-02T02:36:34.097Z,5.509949
2019-05-02T02:37:39.489Z,5.509949
2019-05-02T02:38:49.984Z,5.499878
2019-05-02T02:39:59.507Z,5.509949
2019-05-02T02:41:12.892Z,5.509949
2019-05-02T02:42:18.549Z,5.509949
2019-05-02T02:43:33.822Z,5.540161
2019-05-02T02:44:39.804Z,5.570374
2019-05-02T02:45:51.688Z,5.570374
2019-05-02T02:46:58.522Z,5.620728
2019-05-02T02:48:09.030Z,5.640869
2019-05-02T02:49:21.224Z,5.640869
2019-05-02T02:50:28.053Z,5.681152
2019-05-02T02:51:37.560Z,5.661011
2019-05-02T02:52:47.254Z,5.681152
2019-05-02T02:54:03.598Z,5.691223
2019-05-02T02:55:07.066Z,5.691223
2019-05-02T02:56:16.616Z,5.711365
2019-05-02T02:57:28.372Z,5.691223
2019-05-02T02:58:43.936Z,5.691223
2019-05-02T02:59:46.104Z,5.661011
2019-05-02T03:00:56.619Z,5.681152
2019-05-02T03:02:09.789Z,5.661011
2019-05-02T03:03:20.616Z,5.661011
2019-05-02T03:04:26.152Z,5.661011
2019-05-02T03:05:35.686Z,5.661011
2019-05-02T03:06:47.089Z,5.661011
2019-05-02T03:07:59.399Z,5.661011
2019-05-02T03:09:05.191Z,5.65094
2019-05-02T03:10:14.775Z,5.620728
2019-05-02T03:11:25.482Z,5.610657
2019-05-02T03:12:36.079Z,5.590515
2019-05-02T03:13:52.237Z,5.590515
2019-05-02T03:14:54.816Z,5.560303
2019-05-02T03:16:06.777Z,5.570374
2019-05-02T03:17:13.861Z,5.560303
2019-05-02T03:18:26.950Z,5.53009
2019-05-02T03:19:34.828Z,5.53009
2019-05-02T03:20:44.391Z,5.499878
2019-05-02T03:22:00.768Z,5.439453
2019-05-02T03:23:05.384Z,5.389099
2019-05-02T03:24:15.871Z,5.348816
2019-05-02T03:25:48.602Z,5.348816
2019-05-02T03:26:35.982Z,5.358887
2019-05-02T03:27:46.495Z,5.379028
2019-05-02T03:28:58.331Z,5.429382
2019-05-02T03:30:05.520Z,5.459595
2019-05-02T03:31:24.580Z,5.53009
2019-05-02T03:32:34.009Z,5.540161
2019-05-02T03:33:51.153Z,5.560303
2019-05-02T03:34:52.764Z,5.540161
2019-05-02T03:35:57.017Z,5.540161
2019-05-02T03:37:10.019Z,5.53009
2019-05-02T03:38:15.967Z,5.509949
2019-05-02T03:39:26.480Z,5.509949
2019-05-02T03:40:38.804Z,5.53009
2019-05-02T03:41:45.530Z,5.540161
2019-05-02T03:42:56.024Z,5.590515
2019-05-02T03:44:10.950Z,5.620728
2019-05-02T03:45:16.052Z,5.65094
2019-05-02T03:46:25.569Z,5.691223
2019-05-02T03:47:36.631Z,5.731506
2019-05-02T03:48:45.590Z,5.761719
2019-05-02T03:49:56.098Z,5.791931
2019-05-02T03:51:19.077Z,5.791931
2019-05-02T03:52:17.118Z,5.791931
2019-05-02T03:53:27.681Z,5.802002
2019-05-02T03:54:48.252Z,5.822144
2019-05-02T03:55:46.672Z,5.822144
2019-05-02T03:56:56.204Z,5.842285
2019-05-02T03:58:12.763Z,5.842285
2019-05-02T03:59:16.208Z,5.872498
2019-05-02T04:00:26.729Z,5.872498
2019-05-02T04:01:41.165Z,5.862427
2019-05-02T04:02:45.744Z,5.832214
2019-05-02T04:03:56.235Z,5.822144
2019-05-02T04:05:05.752Z,5.791931
2019-05-02T04:06:20.797Z,5.791931
2019-05-02T04:07:24.761Z,5.791931
2019-05-02T04:08:35.248Z,5.791931
2019-05-02T04:09:44.765Z,5.761719
2019-05-02T04:10:59.321Z,5.751648
2019-05-02T04:12:03.795Z,5.751648
2019-05-02T04:13:14.276Z,5.731506
2019-05-02T04:14:37.158Z,5.731506
2019-05-02T04:15:34.991Z,5.751648
2019-05-02T04:16:48.452Z,5.751648
2019-05-02T04:17:54.288Z,5.751648
2019-05-02T04:19:04.788Z,5.751648
2019-05-02T04:20:14.314Z,5.731506
2019-05-02T04:21:25.814Z,5.721436
2019-05-02T04:22:33.361Z,5.721436
2019-05-02T04:23:43.859Z,5.751648
2019-05-02T04:24:56.579Z,5.761719
2019-05-02T04:26:06.622Z,5.802002
2019-05-02T04:27:13.388Z,5.822144
2019-05-02T04:28:23.914Z,5.822144
2019-05-02T04:29:33.445Z,5.832214
2019-05-02T04:30:45.085Z,5.862427
2019-05-02T04:31:53.442Z,5.872498
2019-05-02T04:33:03.934Z,5.912781
2019-05-02T04:34:15.016Z,5.932922
2019-05-02T04:35:28.655Z,5.942993
2019-05-02T04:36:33.447Z,5.973206
2019-05-02T04:37:43.970Z,5.993347
2019-05-02T04:38:53.498Z,6.02356
2019-05-02T04:40:07.880Z,6.043701
2019-05-02T04:41:18.604Z,6.053772
2019-05-02T04:42:23.970Z,6.083984
2019-05-02T04:43:33.477Z,6.124268
2019-05-02T04:44:59.938Z,6.144409
2019-05-02T04:45:57.125Z,6.174622
2019-05-02T04:47:10.763Z,6.255188
2019-05-02T04:48:14.433Z,6.27533
2019-05-02T04:49:29.516Z,6.376038
2019-05-02T04:50:34.428Z,6.40625
2019-05-02T04:51:48.208Z,6.436462
2019-05-02T04:52:54.462Z,6.456604
2019-05-02T04:54:03.975Z,6.506958
2019-05-02T04:55:22.881Z,6.53717
2019-05-02T04:56:24.969Z,6.597595
2019-05-02T04:57:36.170Z,6.637878
2019-05-02T04:58:45.023Z,6.688232
2019-05-02T05:00:02.115Z,6.77887
2019-05-02T05:01:05.003Z,6.869507
2019-05-02T05:02:20.058Z,6.919861
2019-05-02T05:03:25.024Z,6.970215
2019-05-02T05:04:39.535Z,7.03064
2019-05-02T05:05:45.099Z,7.070923
2019-05-02T05:06:58.050Z,7.111206
2019-05-02T05:08:04.130Z,7.151489
2019-05-02T05:09:14.990Z,7.211914
2019-05-02T05:10:24.142Z,7.28241
2019-05-02T05:11:34.640Z,7.332764
2019-05-02T05:12:44.162Z,7.403259
2019-05-02T05:13:57.365Z,7.473755
2019-05-02T05:15:03.185Z,7.53418
2019-05-02T05:16:15.610Z,7.614746
2019-05-02T05:17:24.970Z,7.634888
2019-05-02T05:18:33.702Z,7.685242
2019-05-02T05:19:44.211Z,7.78595
2019-05-02T05:20:54.304Z,7.876587
2019-05-02T05:22:04.633Z,7.896729
2019-05-02T05:23:15.590Z,7.947083
2019-05-02T05:24:24.808Z,8.078003
2019-05-02T05:25:32.696Z,8.158569
2019-05-02T05:26:42.984Z,8.198853
2019-05-02T05:27:52.517Z,8.229065
2019-05-02T05:29:02.245Z,8.279419
2019-05-02T05:30:15.579Z,8.370056
2019-05-02T05:31:23.781Z,8.440552
2019-05-02T05:32:31.745Z,8.490906
2019-05-02T05:33:41.249Z,8.551331
2019-05-02T05:34:50.779Z,8.611755
2019-05-02T05:36:01.282Z,8.742676
2019-05-02T05:37:13.305Z,8.823242
2019-05-02T05:38:22.867Z,8.873596
2019-05-02T05:39:30.829Z,8.974304
2019-05-02T05:40:41.321Z,9.095154
2019-05-02T05:41:52.223Z,9.205933
2019-05-02T05:43:02.077Z,9.316711
2019-05-02T05:44:10.836Z,9.477844
2019-05-02T05:45:21.334Z,9.558411
2019-05-02T05:46:33.254Z,9.659119
2019-05-02T05:47:41.386Z,9.719543
2019-05-02T05:48:51.910Z,9.759827
2019-05-02T05:50:01.509Z,9.820251
2019-05-02T05:51:11.751Z,9.860535
2019-05-02T05:52:21.446Z,9.920959
2019-05-02T05:53:31.989Z,10.021667
2019-05-02T05:54:42.046Z,10.102234
2019-05-02T05:55:53.486Z,10.192871
2019-05-02T05:57:01.509Z,10.263367
2019-05-02T05:58:15.427Z,10.343933
2019-05-02T05:59:22.159Z,10.414429
2019-05-02T06:00:32.010Z,10.494995
2019-05-02T06:01:41.517Z,10.565491
2019-05-02T06:02:56.187Z,10.635986
2019-05-02T06:04:02.538Z,10.706482
2019-05-02T06:05:13.039Z,10.756836
2019-05-02T06:06:24.374Z,10.817261
2019-05-02T06:07:33.052Z,10.887756
2019-05-02T06:08:42.539Z,10.92804
2019-05-02T06:09:53.059Z,10.968323
2019-05-02T06:11:03.567Z,11.079102
2019-05-02T06:12:14.104Z,11.139526
2019-05-02T06:13:24.639Z,11.230164
2019-05-02T06:14:34.695Z,11.300659
2019-05-02T06:15:45.877Z,11.351013
2019-05-02T06:16:54.174Z,11.401367
2019-05-02T06:18:04.686Z,11.451721
2019-05-02T06:19:17.709Z,11.502075
2019-05-02T06:20:25.603Z,11.572571
2019-05-02T06:21:33.244Z,11.622925
2019-05-02T06:22:43.768Z,11.69342
2019-05-02T06:23:54.326Z,11.733704
2019-05-02T06:25:08.274Z,11.81427
2019-05-02T06:26:15.279Z,11.904907
2019-05-02T06:27:25.610Z,12.015686
2019-05-02T06:28:36.169Z,12.096252
2019-05-02T06:29:42.841Z,12.166748
2019-05-02T06:30:53.349Z,12.207031
2019-05-02T06:32:02.867Z,12.277527
2019-05-02T06:33:13.421Z,12.368164
2019-05-02T06:34:23.918Z,12.489014
2019-05-02T06:35:34.439Z,12.599792
2019-05-02T06:36:43.952Z,12.680359
2019-05-02T06:37:53.500Z,12.791138
2019-05-02T06:39:03.015Z,12.911987
2019-05-02T06:40:12.517Z,13.032837
2019-05-02T06:41:22.284Z,13.093262
2019-05-02T06:42:32.567Z,13.163757
2019-05-02T06:43:45.996Z,13.284607
2019-05-02T06:44:54.802Z,13.405457
2019-05-02T06:46:01.067Z,13.516235
2019-05-02T06:47:11.539Z,13.566589
2019-05-02T06:48:21.092Z,13.627014
2019-05-02T06:49:30.608Z,13.717651
2019-05-02T06:50:40.546Z,13.848572
2019-05-02T06:51:50.950Z,13.919067
2019-05-02T06:52:59.180Z,13.969421
2019-05-02T06:54:09.680Z,14.049988
2019-05-02T06:55:20.175Z,14.150696
2019-05-02T06:56:30.692Z,14.251404
2019-05-02T06:57:41.216Z,14.301758
2019-05-02T06:58:51.740Z,14.372253
2019-05-02T07:00:01.258Z,14.402466
2019-05-02T07:01:10.768Z,14.402466
2019-05-02T07:02:21.319Z,14.412537
2019-05-02T07:03:31.783Z,14.503174
2019-05-02T07:04:42.283Z,14.593811
2019-05-02T07:05:52.795Z,14.694519
2019-05-02T07:07:03.442Z,14.684448
2019-05-02T07:08:14.256Z,14.634094
2019-05-02T07:09:24.615Z,14.533386
2019-05-02T07:10:44.312Z,14.553528
2019-05-02T07:11:56.574Z,14.634094
2019-05-02T07:13:09.375Z,14.664307
2019-05-02T07:14:13.234Z,14.684448
2019-05-02T07:15:16.804Z,14.593811
2019-05-02T07:16:37.455Z,14.533386
2019-05-02T07:17:38.336Z,14.543457
2019-05-02T07:18:47.379Z,14.70459
2019-05-02T07:19:58.787Z,14.855652
2019-05-02T07:21:06.349Z,15.026855
2019-05-02T07:22:16.826Z,15.107422
2019-05-02T07:23:26.371Z,15.238342
2019-05-02T07:24:35.924Z,15.328979
2019-05-02T07:25:45.489Z,15.349121
2019-05-02T07:26:56.780Z,15.469971
2019-05-02T07:28:09.010Z,15.550537
2019-05-02T07:29:16.963Z,15.641174
2019-05-02T07:30:23.507Z,15.671387
2019-05-02T07:31:34.032Z,15.701599
2019-05-02T07:32:43.542Z,15.822449
2019-05-02T07:33:53.077Z,15.943298
2019-05-02T07:35:02.605Z,16.054077
2019-05-02T07:36:12.181Z,16.174927
2019-05-02T07:37:21.708Z,16.305847
2019-05-02T07:38:31.227Z,16.406555
2019-05-02T07:39:41.154Z,16.456909
2019-05-02T07:40:52.915Z,16.426697
2019-05-02T07:42:00.388Z,16.527405
2019-05-02T07:43:13.001Z,16.567688
2019-05-02T07:44:19.761Z,16.748962
2019-05-02T07:45:30.306Z,16.759033
2019-05-02T07:46:51.097Z,16.8396
2019-05-02T07:47:51.293Z,16.8396
2019-05-02T07:49:01.921Z,16.859741
2019-05-02T07:50:11.891Z,16.8396
2019-05-02T07:51:21.428Z,16.900024
2019-05-02T07:52:33.593Z,17.081299
2019-05-02T07:53:44.368Z,17.192078
2019-05-02T07:54:50.574Z,17.192078
2019-05-02T07:56:01.043Z,17.262573
2019-05-02T07:57:11.569Z,17.383423
2019-05-02T07:58:21.128Z,17.312927
2019-05-02T07:59:30.672Z,17.242432
2019-05-02T08:00:40.196Z,17.081299
2019-05-02T08:01:50.894Z,17.041016
2019-05-02T08:02:59.406Z,17.041016
2019-05-02T08:04:10.962Z,17.192078
2019-05-02T08:05:21.461Z,17.443848
2019-05-02T08:06:34.884Z,17.544556
2019-05-02T08:07:38.325Z,17.665405
2019-05-02T08:08:47.899Z,17.715759
2019-05-02T08:09:57.442Z,17.85675
2019-05-02T08:11:07.061Z,17.9776
2019-05-02T08:12:16.572Z,18.078308
2019-05-02T08:13:26.103Z,18.189087
2019-05-02T08:14:36.408Z,18.370361
2019-05-02T08:15:50.235Z,18.440857
2019-05-02T08:17:04.876Z,18.430786
2019-05-02T08:18:05.255Z,18.551636
2019-05-02T08:19:14.809Z,18.742981
2019-05-02T08:20:24.319Z,18.833618
2019-05-02T08:21:34.031Z,18.783264
2019-05-02T08:22:43.936Z,18.662415
2019-05-02T08:23:57.030Z,18.73291
2019-05-02T08:25:03.596Z,18.863831
2019-05-02T08:26:16.266Z,19.024963
2019-05-02T08:27:23.561Z,18.924255
2019-05-02T08:28:34.064Z,19.004822
2019-05-02T08:29:43.722Z,19.135742
2019-05-02T08:30:53.235Z,19.306946
2019-05-02T08:32:02.751Z,19.286804
2019-05-02T08:33:12.263Z,18.964539
2019-05-02T08:34:21.895Z,18.662415
2019-05-02T08:35:31.513Z,18.682556
2019-05-02T08:36:41.031Z,18.652344
2019-05-02T08:37:50.535Z,18.450928
2019-05-02T08:39:00.045Z,18.430786
2019-05-02T08:40:10.433Z,18.531494
2019-05-02T08:41:20.246Z,18.380432
2019-05-02T08:42:32.497Z,18.551636
2019-05-02T08:43:40.055Z,18.591919
2019-05-02T08:44:50.939Z,18.551636
2019-05-02T08:45:58.465Z,18.652344
2019-05-02T08:47:18.609Z,18.753052
2019-05-02T08:48:19.460Z,18.742981
2019-05-02T08:49:28.969Z,18.742981
2019-05-02T08:50:38.499Z,18.98468
2019-05-02T08:51:48.987Z,19.024963
2019-05-02T08:52:58.493Z,19.176025
2019-05-02T08:54:08.016Z,19.327087
2019-05-02T08:55:17.537Z,19.548645
2019-05-02T08:56:27.062Z,19.770203
2019-05-02T08:57:36.582Z,19.810486
2019-05-02T08:58:49.739Z,19.951477
2019-05-02T09:00:00.154Z,19.911194
2019-05-02T09:01:09.059Z,19.880981
2019-05-02T09:02:15.599Z,19.951477
2019-05-02T09:03:26.095Z,19.911194
2019-05-02T09:04:36.594Z,19.891052
2019-05-02T09:05:47.457Z,19.880981
2019-05-02T09:06:58.589Z,19.760132
2019-05-02T09:08:09.080Z,19.709778
2019-05-02T09:09:17.632Z,19.699707
2019-05-02T09:10:28.137Z,19.770203
2019-05-02T09:11:37.640Z,19.820557
2019-05-02T09:12:48.113Z,19.619141
2019-05-02T09:13:57.630Z,19.518433
2019-05-02T09:15:07.187Z,19.639282
2019-05-02T09:16:21.456Z,19.820557
2019-05-02T09:17:35.896Z,20.021973
2019-05-02T09:18:41.029Z,20.032043
2019-05-02T09:19:59.340Z,20.132751
2019-05-02T09:20:58.667Z,20.253601
2019-05-02T09:22:13.054Z,20.283813
2019-05-02T09:23:17.659Z,20.465088
2019-05-02T09:24:28.164Z,20.696716
2019-05-02T09:25:37.688Z,21.018982
2019-05-02T09:26:47.199Z,21.25061
2019-05-02T09:27:56.702Z,21.431885
2019-05-02T09:29:06.235Z,21.613159
2019-05-02T09:30:16.972Z,21.542664
2019-05-02T09:31:26.261Z,21.180115
2019-05-02T09:32:37.200Z,20.918274
2019-05-02T09:33:46.963Z,20.716858
2019-05-02T09:35:01.211Z,20.646362
2019-05-02T09:36:07.326Z,20.545654
2019-05-02T09:37:16.847Z,20.404663
2019-05-02T09:38:26.356Z,20.555725
2019-05-02T09:39:36.568Z,20.777283
2019-05-02T09:40:47.122Z,20.877991
2019-05-02T09:41:55.875Z,20.777283
2019-05-02T09:43:06.380Z,20.585938
2019-05-02T09:44:18.653Z,20.515442
2019-05-02T09:45:27.668Z,20.434875
2019-05-02T09:46:35.910Z,20.505371
2019-05-02T09:47:55.724Z,20.61615
2019-05-02T09:49:01.407Z,20.898132
2019-05-02T09:50:07.380Z,21.059265
2019-05-02T09:51:17.610Z,21.37146
2019-05-02T09:52:26.418Z,21.613159
2019-05-02T09:53:36.899Z,21.401672
2019-05-02T09:54:46.425Z,21.11969
2019-05-02T09:55:57.993Z,21.170044
2019-05-02T09:57:05.555Z,21.270752
2019-05-02T09:58:21.020Z,21.11969
2019-05-02T09:59:30.043Z,20.596008
2019-05-02T10:00:36.112Z,20.575867
2019-05-02T10:01:43.622Z,20.545654
2019-05-02T10:02:53.165Z,20.4953
2019-05-02T10:04:03.709Z,20.434875
2019-05-02T10:05:13.249Z,20.555725
2019-05-02T10:06:23.803Z,20.666504
2019-05-02T10:07:34.340Z,20.686646
2019-05-02T10:08:46.528Z,20.847778
2019-05-02T10:09:57.601Z,21.029053
2019-05-02T10:11:04.876Z,21.210327
2019-05-02T10:12:15.383Z,20.928345
2019-05-02T10:13:24.898Z,20.646362
2019-05-02T10:14:34.416Z,20.263672
2019-05-02T10:15:43.920Z,20.162964
2019-05-02T10:16:57.551Z,19.961548
2019-05-02T10:18:10.373Z,19.941406
2019-05-02T10:19:14.468Z,20.324097
2019-05-02T10:20:31.704Z,20.777283
2019-05-02T10:21:35.494Z,21.401672
2019-05-02T10:22:46.094Z,22.056274
2019-05-02T10:23:59.218Z,22.358398
2019-05-02T10:25:05.146Z,22.529602
2019-05-02T10:26:19.760Z,22.24762
2019-05-02T10:27:25.155Z,22.24762
2019-05-02T10:28:34.691Z,22.479248
2019-05-02T10:29:45.190Z,22.056274
2019-05-02T10:30:56.543Z,21.11969
2019-05-02T10:32:07.424Z,20.817566
2019-05-02T10:33:14.728Z,20.666504
2019-05-02T10:34:24.258Z,20.515442
2019-05-02T10:35:37.113Z,20.444946
2019-05-02T10:36:45.398Z,20.404663
2019-05-02T10:37:54.820Z,20.626221
2019-05-02T10:39:04.342Z,21.109619
2019-05-02T10:40:17.077Z,21.512451
2019-05-02T10:41:24.437Z,21.582947
2019-05-02T10:42:34.945Z,21.663513
2019-05-02T10:43:46.853Z,21.703796
2019-05-02T10:44:54.991Z,21.663513
2019-05-02T10:46:05.531Z,21.552734
2019-05-02T10:47:15.076Z,21.603088
2019-05-02T10:48:28.139Z,21.50238
2019-05-02T10:49:34.097Z,21.613159
2019-05-02T10:50:43.606Z,21.824646
2019-05-02T10:51:53.759Z,22.12677
2019-05-02T10:53:10.978Z,22.348328
2019-05-02T10:54:14.125Z,22.449036
2019-05-02T10:55:24.236Z,22.37854
2019-05-02T10:56:34.251Z,21.915283
2019-05-02T10:57:43.828Z,21.774292
2019-05-02T10:58:53.421Z,21.693726
2019-05-02T11:00:03.262Z,21.603088
2019-05-02T11:01:12.755Z,21.401672
2019-05-02T11:02:23.036Z,21.663513
2019-05-02T11:03:37.880Z,21.572876
2019-05-02T11:04:44.280Z,21.613159
2019-05-02T11:05:57.848Z,21.431885
2019-05-02T11:07:04.598Z,21.37146
2019-05-02T11:08:15.116Z,21.703796
2019-05-02T11:09:26.319Z,21.734009
2019-05-02T11:10:34.241Z,21.421814
2019-05-02T11:11:43.797Z,21.089478
2019-05-02T11:12:56.021Z,20.928345
2019-05-02T11:14:05.571Z,20.877991
2019-05-02T11:15:12.728Z,21.069336
2019-05-02T11:16:22.992Z,21.723938
2019-05-02T11:17:32.600Z,22.25769
2019-05-02T11:18:45.191Z,22.358398
2019-05-02T11:19:53.784Z,22.177124
2019-05-02T11:21:08.070Z,22.136841
2019-05-02T11:22:12.968Z,21.693726
2019-05-02T11:23:23.538Z,21.854858
2019-05-02T11:24:34.110Z,21.975708
2019-05-02T11:25:43.676Z,22.408752
2019-05-02T11:26:53.278Z,23.023071
2019-05-02T11:28:06.918Z,23.103638
2019-05-02T11:29:13.286Z,23.083496
2019-05-02T11:30:26.456Z,23.123779
2019-05-02T11:31:33.434Z,23.123779
2019-05-02T11:32:44.003Z,22.88208
2019-05-02T11:33:53.611Z,23.153992
2019-05-02T11:35:03.152Z,23.435974
2019-05-02T11:36:13.712Z,23.617249
2019-05-02T11:37:23.236Z,23.979797
2019-05-02T11:38:34.092Z,24.161072
2019-05-02T11:39:50.263Z,24.14093
2019-05-02T11:40:54.914Z,23.707886
2019-05-02T11:42:04.588Z,23.435974
2019-05-02T11:43:14.087Z,23.466187
2019-05-02T11:44:23.594Z,23.023071
2019-05-02T11:45:33.346Z,22.851868
2019-05-02T11:46:46.820Z,22.036133
2019-05-02T11:47:55.685Z,22.529602
2019-05-02T11:49:03.087Z,22.25769
2019-05-02T11:50:12.612Z,22.217407
2019-05-02T11:51:23.137Z,22.428894
2019-05-02T11:52:37.259Z,22.872009
2019-05-02T11:53:43.302Z,23.053284
2019-05-02T11:54:53.858Z,23.75824
2019-05-02T11:56:07.317Z,23.989868
2019-05-02T11:57:14.007Z,23.838806
2019-05-02T11:58:24.619Z,23.838806
2019-05-02T11:59:34.139Z,23.879089
2019-05-02T12:00:45.194Z,23.607178
2019-05-02T12:01:59.192Z,23.274841
2019-05-02T12:03:03.923Z,23.476257
2019-05-02T12:04:16.811Z,23.576965
2019-05-02T12:05:26.505Z,23.909302
2019-05-02T12:06:33.730Z,24.211426
2019-05-02T12:07:43.305Z,24.14093
2019-05-02T12:08:53.881Z,23.234558
2019-05-02T12:10:04.734Z,23.274841
2019-05-02T12:11:17.630Z,23.476257
2019-05-02T12:12:27.159Z,24.020081
2019-05-02T12:13:34.035Z,23.959656
2019-05-02T12:14:43.638Z,24.020081
2019-05-02T12:15:53.171Z,24.181213
2019-05-02T12:17:03.730Z,24.51355
2019-05-02T12:18:13.280Z,24.976807
2019-05-02T12:19:24.427Z,25.359497
2019-05-02T12:20:36.677Z,25.550842
2019-05-02T12:21:43.714Z,26.134949
2019-05-02T12:22:53.237Z,26.074524
2019-05-02T12:24:02.758Z,26.245728
2019-05-02T12:25:13.328Z,26.336365
2019-05-02T12:26:22.871Z,25.7724
2019-05-02T12:27:33.372Z,25.409851
2019-05-02T12:28:43.008Z,25.550842
2019-05-02T12:29:57.623Z,25.379639
2019-05-02T12:31:07.937Z,24.916382
2019-05-02T12:32:15.646Z,24.704895
2019-05-02T12:33:23.984Z,24.362488
2019-05-02T12:34:33.514Z,24.755249
2019-05-02T12:35:44.135Z,25.158081
2019-05-02T12:36:53.657Z,24.976807
2019-05-02T12:38:03.182Z,24.604187
2019-05-02T12:39:12.910Z,24.533691
2019-05-02T12:40:23.415Z,24.553833
2019-05-02T12:41:33.737Z,24.876099
2019-05-02T12:42:43.254Z,25.137939
2019-05-02T12:43:53.766Z,25.379639
2019-05-02T12:45:03.289Z,25.722046
2019-05-02T12:46:12.824Z,26.14502
2019-05-02T12:47:23.373Z,26.245728
2019-05-02T12:48:32.922Z,26.507568
2019-05-02T12:49:43.429Z,26.557922
2019-05-02T12:50:53.007Z,26.27594
2019-05-02T12:52:03.214Z,25.983887
2019-05-02T12:53:13.276Z,25.631409
2019-05-02T12:54:22.808Z,25.510559
2019-05-02T12:55:33.334Z,26.02417
2019-05-02T12:56:44.051Z,26.39679
2019-05-02T12:57:53.657Z,26.366577
2019-05-02T12:59:04.211Z,26.255798
2019-05-02T13:00:13.778Z,26.255798
2019-05-02T13:01:23.276Z,25.701904
2019-05-02T13:02:33.834Z,24.956665
2019-05-02T13:03:43.755Z,25.309143
2019-05-02T13:04:52.916Z,25.722046
2019-05-02T13:06:03.457Z,26.15509
2019-05-02T13:07:12.986Z,26.427002
2019-05-02T13:08:25.291Z,26.52771
2019-05-02T13:09:33.057Z,26.578064
2019-05-02T13:10:42.597Z,26.004028
2019-05-02T13:11:53.130Z,25.621338
2019-05-02T13:13:03.676Z,25.852966
2019-05-02T13:14:18.875Z,26.205444
2019-05-02T13:15:23.767Z,26.225586
2019-05-02T13:16:34.310Z,26.356506
2019-05-02T13:17:48.652Z,26.427002
2019-05-02T13:18:57.140Z,26.255798
2019-05-02T13:20:04.128Z,26.02417
2019-05-02T13:21:16.803Z,25.963745
2019-05-02T13:22:23.906Z,26.52771
2019-05-02T13:23:36.967Z,27.121887
2019-05-02T13:24:46.871Z,27.03125
2019-05-02T13:25:53.479Z,27.111816
2019-05-02T13:27:04.582Z,27.323303
2019-05-02T13:28:16.994Z,27.575073
2019-05-02T13:29:24.021Z,27.625427
2019-05-02T13:30:42.592Z,27.524719